createdAt,value
2022-11-16T00:02:51.852Z,76.69
2022-11-16T00:05:59.042Z,76.56
2022-11-16T00:09:20.941Z,76.00
2022-11-16T00:12:23.216Z,76.06
2022-11-16T00:15:25.485Z,76.92
2022-11-16T00:18:28.457Z,77.51
2022-11-16T00:21:31.216Z,77.01
2022-11-16T00:24:33.554Z,76.34
2022-11-16T00:27:35.814Z,77.28
2022-11-16T00:30:38.588Z,77.18
2022-11-16T00:33:41.068Z,76.41
2022-11-16T00:36:43.461Z,76.46
2022-11-16T00:39:45.758Z,76.38
2022-11-16T00:42:48.315Z,76.11
2022-11-16T00:45:50.622Z,76.30
2022-11-16T00:48:53.065Z,76.78
2022-11-16T00:51:55.516Z,76.57
2022-11-16T00:54:58.036Z,76.78
2022-11-16T00:58:00.549Z,76.53
2022-11-16T01:01:06.019Z,76.73
2022-11-16T01:04:08.349Z,76.37
2022-11-16T01:07:11.567Z,76.59
2022-11-16T01:10:17.389Z,76.48
2022-11-16T01:13:19.742Z,76.37
2022-11-16T01:16:23.496Z,76.71
2022-11-16T01:19:25.913Z,76.81
2022-11-16T01:22:28.168Z,77.01
2022-11-16T01:25:30.444Z,77.13
2022-11-16T01:28:33.423Z,77.17
2022-11-16T01:31:36.459Z,77.56
2022-11-16T01:34:40.163Z,77.32
2022-11-16T01:38:05.044Z,77.49
2022-11-16T01:41:09.772Z,76.97
2022-11-16T01:44:15.126Z,77.10
2022-11-16T01:47:28.878Z,76.84
2022-11-16T01:50:34.168Z,77.00
2022-11-16T01:53:37.214Z,77.13
2022-11-16T01:56:40.329Z,76.89
2022-11-16T01:59:48.009Z,77.31
2022-11-16T02:02:54.769Z,77.22
2022-11-16T02:06:26.315Z,76.88
2022-11-16T02:10:23.189Z,76.79
2022-11-16T02:13:51.497Z,77.71
2022-11-16T02:17:31.128Z,76.85
2022-11-16T02:21:13.547Z,77.37
2022-11-16T02:24:34.667Z,77.54
2022-11-16T02:27:55.489Z,77.34
2022-11-16T02:31:00.714Z,77.22
2022-11-16T02:34:05.430Z,77.17
2022-11-16T02:37:08.192Z,77.57
2022-11-16T02:40:12.433Z,77.31
2022-11-16T02:43:26.492Z,77.35
2022-11-16T02:46:32.372Z,77.05
2022-11-16T02:49:37.075Z,76.82
2022-11-16T02:52:39.374Z,77.41
2022-11-16T02:55:44.517Z,77.04
2022-11-16T02:58:47.459Z,77.46
2022-11-16T03:01:57.903Z,77.44
2022-11-16T03:05:19.398Z,77.34
2022-11-16T03:08:32.692Z,77.00
2022-11-16T03:11:59.434Z,77.26
2022-11-16T03:15:07.318Z,77.39
2022-11-16T03:18:10.321Z,77.53
2022-11-16T03:21:30.450Z,77.43
2022-11-16T03:24:33.007Z,77.29
2022-11-16T03:28:15.457Z,77.19
2022-11-16T03:31:27.021Z,77.29
2022-11-16T03:34:33.091Z,77.42
2022-11-16T03:37:36.122Z,76.92
2022-11-16T03:40:39.410Z,76.79
2022-11-16T03:43:42.635Z,76.95
2022-11-16T03:46:45.816Z,77.24
2022-11-16T03:49:49.644Z,77.06
2022-11-16T03:52:54.348Z,77.14
2022-11-16T03:55:56.964Z,77.57
2022-11-16T03:58:59.349Z,77.62
2022-11-16T04:02:01.826Z,76.97
2022-11-16T04:05:22.702Z,76.60
2022-11-16T04:08:43.424Z,76.49
2022-11-16T04:12:06.246Z,76.61
2022-11-16T04:15:28.705Z,76.94
2022-11-16T04:18:49.692Z,76.76
2022-11-16T04:22:35.805Z,76.96
2022-11-16T04:25:40.711Z,77.53
2022-11-16T04:28:50.102Z,76.97
2022-11-16T04:32:11.243Z,77.80
2022-11-16T04:35:32.651Z,77.96
2022-11-16T04:38:35.349Z,77.50
2022-11-16T04:41:57.037Z,77.26
2022-11-16T04:45:19.316Z,77.97
2022-11-16T04:48:25.768Z,77.25
2022-11-16T04:51:29.933Z,76.63
2022-11-16T04:54:33.446Z,76.57
2022-11-16T04:57:35.756Z,76.66
2022-11-16T05:00:39.283Z,76.83
2022-11-16T05:03:41.604Z,77.02
2022-11-16T05:06:44.185Z,76.61
2022-11-16T05:09:48.470Z,76.89
2022-11-16T05:12:51.891Z,77.40
2022-11-16T05:15:54.457Z,77.42
2022-11-16T05:19:15.369Z,77.48
2022-11-16T05:22:17.754Z,77.73
2022-11-16T05:25:20.342Z,77.45
2022-11-16T05:28:23.055Z,77.90
2022-11-16T05:31:25.394Z,77.84
2022-11-16T05:34:28.491Z,77.76
2022-11-16T05:37:31.099Z,77.56
2022-11-16T05:40:34.270Z,77.03
2022-11-16T05:43:36.749Z,76.33
2022-11-16T05:46:53.831Z,75.64
2022-11-16T05:49:56.928Z,74.95
2022-11-16T05:53:01.468Z,75.84
2022-11-16T05:56:04.605Z,76.71
2022-11-16T05:59:16.511Z,75.24
2022-11-16T06:02:19.993Z,75.84
2022-11-16T06:05:23.565Z,76.86
2022-11-16T06:08:26.465Z,76.76
2022-11-16T06:11:35.551Z,76.85
2022-11-16T06:14:39.077Z,77.13
2022-11-16T06:17:41.440Z,77.07
2022-11-16T06:20:45.536Z,77.18
2022-11-16T06:23:48.304Z,77.36
2022-11-16T06:26:50.642Z,77.46
2022-11-16T06:29:53.415Z,77.29
2022-11-16T06:32:56.996Z,76.70
2022-11-16T06:35:59.512Z,77.95
2022-11-16T06:39:02.173Z,77.25
2022-11-16T06:42:08.581Z,77.03
2022-11-16T06:45:11.137Z,77.25
2022-11-16T06:48:17.987Z,77.20
2022-11-16T06:51:21.082Z,76.98
2022-11-16T06:54:23.656Z,77.31
2022-11-16T06:57:26.020Z,77.24
2022-11-16T07:00:28.460Z,77.65
2022-11-16T07:03:31.864Z,76.80
2022-11-16T07:06:35.952Z,78.11
2022-11-16T07:09:39.388Z,75.82
2022-11-16T07:12:41.810Z,75.25
2022-11-16T07:15:44.220Z,73.78
2022-11-16T07:18:46.531Z,73.97
2022-11-16T07:21:49.605Z,74.54
2022-11-16T07:24:54.093Z,76.00
2022-11-16T07:27:58.840Z,76.20
2022-11-16T07:31:06.408Z,76.37
2022-11-16T07:34:09.013Z,76.40
2022-11-16T07:37:20.036Z,76.95
2022-11-16T07:40:23.109Z,77.21
2022-11-16T07:43:25.658Z,77.04
2022-11-16T07:46:47.127Z,77.09
2022-11-16T07:49:51.224Z,76.97
2022-11-16T07:52:56.638Z,77.38
2022-11-16T07:55:59.048Z,77.52
2022-11-16T07:59:03.090Z,76.85
2022-11-16T08:02:11.002Z,77.48
2022-11-16T08:05:15.581Z,77.68
2022-11-16T08:08:17.937Z,76.73
2022-11-16T08:11:20.652Z,76.84
2022-11-16T08:14:23.217Z,76.63
2022-11-16T08:17:28.415Z,77.12
2022-11-16T08:20:31.496Z,77.31
2022-11-16T08:23:34.928Z,76.76
2022-11-16T08:26:38.250Z,77.41
2022-11-16T08:29:44.992Z,77.19
2022-11-16T08:32:48.490Z,76.91
2022-11-16T08:35:52.517Z,76.71
2022-11-16T08:38:55.072Z,77.18
2022-11-16T08:41:59.752Z,76.52
2022-11-16T08:45:02.013Z,76.99
2022-11-16T08:48:05.639Z,77.20
2022-11-16T08:51:18.010Z,77.43
2022-11-16T08:54:29.031Z,77.60
2022-11-16T08:57:31.736Z,77.01
2022-11-16T09:00:38.495Z,77.52
2022-11-16T09:03:41.252Z,76.46
2022-11-16T09:06:43.458Z,76.08
2022-11-16T09:09:45.769Z,77.17
2022-11-16T09:12:48.102Z,76.85
2022-11-16T09:15:57.453Z,76.93
2022-11-16T09:18:59.765Z,76.92
2022-11-16T09:22:02.061Z,76.88
2022-11-16T09:25:04.929Z,76.91
2022-11-16T09:28:08.619Z,76.77
2022-11-16T09:31:10.973Z,76.73
2022-11-16T09:34:13.319Z,76.90
2022-11-16T09:37:15.628Z,77.23
2022-11-16T09:40:17.985Z,76.89
2022-11-16T09:43:42.475Z,76.48
2022-11-16T09:46:53.091Z,77.11
2022-11-16T09:50:03.884Z,77.08
2022-11-16T09:53:15.076Z,76.46
2022-11-16T09:56:22.824Z,76.27
2022-11-16T09:59:27.682Z,76.07
2022-11-16T10:02:42.635Z,75.74
2022-11-16T10:06:03.373Z,75.84
2022-11-16T10:09:05.769Z,75.10
2022-11-16T10:12:46.380Z,75.63
2022-11-16T10:15:55.291Z,76.25
2022-11-16T10:19:08.113Z,76.18
2022-11-16T10:22:22.636Z,76.21
2022-11-16T10:25:51.605Z,76.39
2022-11-16T10:28:59.887Z,76.59
2022-11-16T10:32:13.048Z,76.28
2022-11-16T10:35:31.026Z,75.79
2022-11-16T10:38:33.492Z,76.18
2022-11-16T10:41:39.562Z,77.22
2022-11-16T10:44:44.888Z,76.52
2022-11-16T10:47:56.950Z,75.74
2022-11-16T10:50:59.183Z,76.26
2022-11-16T10:54:01.436Z,75.79
2022-11-16T10:57:06.075Z,74.97
2022-11-16T11:00:12.864Z,75.87
2022-11-16T11:03:30.283Z,75.29
2022-11-16T11:06:33.681Z,75.85
2022-11-16T11:09:37.783Z,75.76
2022-11-16T11:13:08.143Z,76.57
2022-11-16T11:16:16.326Z,74.65
2022-11-16T11:19:28.672Z,75.70
2022-11-16T11:22:33.084Z,75.78
2022-11-16T11:25:37.485Z,75.37
2022-11-16T11:28:46.926Z,75.78
2022-11-16T11:31:51.573Z,75.56
2022-11-16T11:34:54.739Z,76.04
2022-11-16T11:38:04.763Z,76.00
2022-11-16T11:41:18.665Z,74.93
2022-11-16T11:44:20.917Z,75.58
2022-11-16T11:47:57.229Z,75.33
2022-11-16T11:51:37.278Z,75.33
2022-11-16T11:54:46.057Z,75.50
2022-11-16T11:57:51.043Z,75.38
2022-11-16T12:01:36.495Z,75.72
2022-11-16T12:05:09.445Z,75.79
2022-11-16T12:08:35.816Z,75.73
2022-11-16T12:11:48.578Z,76.04
2022-11-16T12:14:50.846Z,75.69
2022-11-16T12:18:02.847Z,76.26
2022-11-16T12:21:19.765Z,76.51
2022-11-16T12:25:00.732Z,76.76
2022-11-16T12:28:24.272Z,76.56
2022-11-16T12:31:59.121Z,76.04
2022-11-16T12:35:13.675Z,76.12
2022-11-16T12:38:26.653Z,76.24
2022-11-16T12:41:29.000Z,76.38
2022-11-16T12:44:55.630Z,75.84
2022-11-16T12:48:10.217Z,75.72
2022-11-16T12:51:27.520Z,75.25
2022-11-16T12:55:31.843Z,75.43
2022-11-16T12:58:24.511Z,76.39
2022-11-16T13:01:41.892Z,76.13
2022-11-16T13:05:05.741Z,75.86
2022-11-16T13:08:43.765Z,76.05
2022-11-16T13:11:50.678Z,76.05
2022-11-16T13:14:55.138Z,76.45
2022-11-16T13:18:00.556Z,76.69
2022-11-16T13:21:12.597Z,76.58
2022-11-16T13:24:27.203Z,76.96
2022-11-16T13:27:45.426Z,76.38
2022-11-16T13:31:29.356Z,76.06
2022-11-16T13:34:33.130Z,76.28
2022-11-16T13:37:38.548Z,76.47
2022-11-16T13:40:41.467Z,76.76
2022-11-16T13:43:48.851Z,76.10
2022-11-16T13:46:56.122Z,76.66
2022-11-16T13:50:01.531Z,76.45
2022-11-16T13:56:50.193Z,76.22
2022-11-16T14:00:20.456Z,76.99
2022-11-16T14:03:22.961Z,77.87
2022-11-16T14:06:25.212Z,73.71
2022-11-16T14:09:44.576Z,73.33
2022-11-16T14:12:52.793Z,74.43
2022-11-16T14:16:20.335Z,74.63
2022-11-16T14:19:44.660Z,75.83
2022-11-16T14:23:20.827Z,76.27
2022-11-16T14:26:45.290Z,75.83
2022-11-16T14:30:00.757Z,76.45
2022-11-16T14:33:03.131Z,76.71
2022-11-16T14:36:08.158Z,76.99
2022-11-16T14:39:14.804Z,76.82
2022-11-16T14:42:22.925Z,76.81
2022-11-16T14:45:28.760Z,77.71
2022-11-16T14:48:31.113Z,76.92
2022-11-16T14:51:36.040Z,76.61
2022-11-16T14:58:17.818Z,77.36
2022-11-16T15:01:44.964Z,76.77
2022-11-16T15:04:49.268Z,77.10
2022-11-16T15:08:01.692Z,77.18
2022-11-16T15:11:07.616Z,77.39
2022-11-16T15:14:09.923Z,76.39
2022-11-16T15:17:20.608Z,76.63
2022-11-16T15:20:24.652Z,76.96
2022-11-16T15:23:30.661Z,77.26
2022-11-16T15:26:33.269Z,76.86
2022-11-16T15:29:35.761Z,77.42
2022-11-16T15:32:44.291Z,77.29
2022-11-16T15:35:47.409Z,77.83
2022-11-16T15:38:51.471Z,78.27
2022-11-16T15:41:58.914Z,77.64
2022-11-16T15:45:15.535Z,78.21
2022-11-16T15:48:23.193Z,78.07
2022-11-16T15:51:27.541Z,78.30
2022-11-16T15:54:54.690Z,78.00
2022-11-16T15:58:07.300Z,78.64
2022-11-16T16:01:11.316Z,78.64
2022-11-16T16:04:18.220Z,78.42
2022-11-16T16:07:40.863Z,78.02
2022-11-16T16:10:43.500Z,78.45
2022-11-16T16:13:58.601Z,78.04
2022-11-16T16:17:00.960Z,77.45
2022-11-16T16:20:05.198Z,77.80
2022-11-16T16:23:17.619Z,78.10
2022-11-16T16:26:21.730Z,78.63
2022-11-16T16:29:26.445Z,78.36
2022-11-16T16:32:30.591Z,78.25
2022-11-16T16:35:32.873Z,77.70
2022-11-16T16:38:35.397Z,76.96
2022-11-16T16:41:37.733Z,76.61
2022-11-16T16:44:40.816Z,76.03
2022-11-16T16:47:43.087Z,77.09
2022-11-16T16:50:45.452Z,77.59
2022-11-16T16:53:47.735Z,78.39
2022-11-16T16:56:50.124Z,78.75
2022-11-16T16:59:52.394Z,78.30
2022-11-16T17:02:54.648Z,78.81
2022-11-16T17:06:01.935Z,78.59
2022-11-16T17:09:04.676Z,79.14
2022-11-16T17:12:06.994Z,79.04
2022-11-16T17:15:09.678Z,79.12
2022-11-16T17:18:12.118Z,78.89
2022-11-16T17:21:14.436Z,78.80
2022-11-16T17:24:16.763Z,78.96
2022-11-16T17:27:19.248Z,78.57
2022-11-16T17:30:21.587Z,79.37
2022-11-16T17:33:24.217Z,79.25
2022-11-16T17:36:26.536Z,79.04
2022-11-16T17:39:28.822Z,78.56
2022-11-16T17:42:32.863Z,78.29
2022-11-16T17:45:35.152Z,78.28
2022-11-16T17:48:38.686Z,78.98
2022-11-16T17:51:40.915Z,78.81
2022-11-16T17:54:43.243Z,78.00
2022-11-16T17:57:45.518Z,78.55
2022-11-16T18:00:51.887Z,78.79
2022-11-16T18:03:54.378Z,78.78
2022-11-16T18:06:56.756Z,78.85
2022-11-16T18:09:59.455Z,79.08
2022-11-16T18:13:01.731Z,77.93
2022-11-16T18:16:11.127Z,78.12
2022-11-16T18:19:18.320Z,78.26
2022-11-16T18:22:20.627Z,78.43
2022-11-16T18:25:24.566Z,78.09
2022-11-16T18:28:27.014Z,77.89
2022-11-16T18:31:29.936Z,77.69
2022-11-16T18:34:32.466Z,77.41
2022-11-16T18:37:34.901Z,77.79
2022-11-16T18:40:37.166Z,78.16
2022-11-16T18:43:43.309Z,78.38
2022-11-16T18:46:45.655Z,78.35
2022-11-16T18:49:47.951Z,77.71
2022-11-16T18:52:50.254Z,77.95
2022-11-16T18:55:57.687Z,78.06
2022-11-16T18:59:00.500Z,77.80
2022-11-16T19:02:02.718Z,77.63
2022-11-16T19:05:05.538Z,77.72
2022-11-16T19:08:07.821Z,77.96
2022-11-16T19:11:12.090Z,78.13
2022-11-16T19:14:14.453Z,78.09
2022-11-16T19:17:16.879Z,77.66
2022-11-16T19:20:19.295Z,77.99
2022-11-16T19:23:21.595Z,77.96
2022-11-16T19:26:26.432Z,78.39
2022-11-16T19:29:28.705Z,78.03
2022-11-16T19:32:32.210Z,78.10
2022-11-16T19:35:34.487Z,77.60
2022-11-16T19:38:37.124Z,77.14
2022-11-16T19:41:39.435Z,77.38
2022-11-16T19:44:41.816Z,77.85
2022-11-16T19:47:44.710Z,77.94
2022-11-16T19:50:47.079Z,77.78
2022-11-16T19:53:49.775Z,77.63
2022-11-16T19:56:55.089Z,77.58
2022-11-16T20:00:00.405Z,77.37
2022-11-16T20:03:02.763Z,77.70
2022-11-16T20:06:10.335Z,78.30
2022-11-16T20:09:13.025Z,77.80
2022-11-16T20:12:15.413Z,77.91
2022-11-16T20:15:17.878Z,77.90
2022-11-16T20:18:20.176Z,78.34
2022-11-16T20:21:39.806Z,77.67
2022-11-16T20:24:42.096Z,77.93
2022-11-16T20:27:44.404Z,77.83
2022-11-16T20:30:47.732Z,77.24
2022-11-16T20:34:00.336Z,77.43
2022-11-16T20:37:02.721Z,77.57
2022-11-16T20:40:05.583Z,77.34
2022-11-16T20:43:09.143Z,77.30
2022-11-16T20:46:13.575Z,76.96
2022-11-16T20:49:16.090Z,76.85
2022-11-16T20:52:18.389Z,76.84
2022-11-16T20:55:21.099Z,77.15
2022-11-16T20:58:24.220Z,77.05
2022-11-16T21:01:34.119Z,77.71
2022-11-16T21:04:36.490Z,77.55
2022-11-16T21:07:41.800Z,76.85
2022-11-16T21:10:44.831Z,77.01
2022-11-16T21:14:06.288Z,78.00
2022-11-16T21:17:08.605Z,77.54
2022-11-16T21:20:28.140Z,76.79
2022-11-16T21:23:32.598Z,77.37
2022-11-16T21:26:35.472Z,77.18
2022-11-16T21:29:37.659Z,77.83
2022-11-16T21:32:39.918Z,78.34
2022-11-16T21:35:42.196Z,78.50
2022-11-16T21:38:44.730Z,77.47
2022-11-16T21:41:46.985Z,77.58
2022-11-16T21:44:49.280Z,77.71
2022-11-16T21:47:51.506Z,77.54
2022-11-16T21:51:01.385Z,77.39
2022-11-16T21:54:03.735Z,76.67
2022-11-16T21:57:05.984Z,77.09
2022-11-16T22:00:08.807Z,77.20
2022-11-16T22:03:13.906Z,76.77
2022-11-16T22:06:51.545Z,77.56
2022-11-16T22:09:53.846Z,76.56
2022-11-16T22:12:56.084Z,77.74
2022-11-16T22:15:58.588Z,77.58
2022-11-16T22:19:00.846Z,77.13
2022-11-16T22:22:03.112Z,76.65
2022-11-16T22:25:05.946Z,76.96
2022-11-16T22:28:20.522Z,76.77
2022-11-16T22:31:23.404Z,76.78
2022-11-16T22:34:25.707Z,77.04
2022-11-16T22:37:27.980Z,76.98
2022-11-16T22:40:30.507Z,76.82
2022-11-16T22:43:33.409Z,77.23
2022-11-16T22:46:36.017Z,77.59
2022-11-16T22:49:38.338Z,77.15
2022-11-16T22:52:40.610Z,77.24
2022-11-16T22:55:42.908Z,76.88
2022-11-16T22:58:45.239Z,77.44
2022-11-16T23:01:47.489Z,77.47
2022-11-16T23:04:49.745Z,76.64
2022-11-16T23:07:52.082Z,76.87
2022-11-16T23:11:17.512Z,76.83
2022-11-16T23:14:38.406Z,76.51
2022-11-16T23:17:40.687Z,76.97
2022-11-16T23:21:01.435Z,77.25
2022-11-16T23:24:22.334Z,76.90
2022-11-16T23:27:31.455Z,76.64
2022-11-16T23:30:34.894Z,76.49
2022-11-16T23:33:46.230Z,76.25
2022-11-16T23:36:48.448Z,76.25
2022-11-16T23:39:50.675Z,76.38
2022-11-16T23:43:12.595Z,76.04
2022-11-16T23:46:14.868Z,75.80
2022-11-16T23:49:17.126Z,75.62
2022-11-16T23:52:19.412Z,75.56
2022-11-16T23:55:23.192Z,75.94
2022-11-16T23:58:25.466Z,75.63
